LiveATC.Net - Listen to live air traffic control over the Internet!


ICAO: 52F  IATA: 52F   Airport: Northwest Regional Airport
City: Roanoke   State/Province: Texas
Country: United States   Continent: North America
KAFW METAR Weather: KAFW 051553Z 19011G18KT 10SM FEW020 SCT170 SCT210 BKN280 21/17 A2993 RMK AO2 SLP130 T02110172
52F Flight Activity (FlightAware)
52F Webcam:  (Airport Webcams) 
52F Airport Info   (iFlightPlanner)
52F VFR Sectional Chart   (iFlightPlanner) 
52F IFR Low Altitude Chart   (iFlightPlanner) 
52F IFR High Altitude Chart   (iFlightPlanner) 

52F CTAF
Feed Status: UP   Listeners: 0
Listen in your browser - HTML5 player (in browser, HTML5)
Click here to listen with your own player (launches your MP3 player)
Archive Access: 52F CTAF
FacilityFrequency
Northwest Regional 52F CTAF122.900

NOTICE

Unauthorized use prohibited. See LiveATC.net Terms of Service


Airport/ARTCC Code
Frequency Search
(e.g., 124.400, 128.75)
Site-wide search
 


Browse Feeds
Top 50 Feeds
HF Oceanic Feeds
Coverage Map
Bad Weather Areas

LiveATC FAQ
Offer LiveATC feed
Contact LiveATC.net
Press Inquiries

LiveATC on iPhone
LiveATC on Android

Windows Phone
Windows 8/10

LiveATC Mobile
(Mobile browser)

ATC Audio Archives
Interesting Recordings

LiveATC Forums


Home Page
About LiveATC.net
Make a Donation
Terms of Use
Privacy Policy

Canadian Air Freqs

AIRMETs/SIGMETs

FAA Airport Status
NAS Status
Arrival Demand


Server Software By:
Icecast.org
Liquidsoap